Pittsfield, Pennsylvania
Current Conditions -  °F | °C
As of 8:35 PM on Monday 20 Oct 2014 (Local Time) from KJHW Reporting Station
Overcast Overcast  
Wind Chill: 42°   Ceiling: 3100
Heat Index: 46°   Visibility: 10mi
Dew Point: 43°   Wind: 8mph
Humidity: 87%   Direction: 190°S
Pressure: 29.85"   Gusts: NA
Location:  41.84°N, 79.38°W
Report Text: KJHW 210035Z AUTO 19007KT 10SM OVC031 08/06 A2985 RMK AO1 P0002
Loading
Personal Weather Stations






























Interactive Weather Map
Tropical Storm Tracking
New forecast layout! Learn more

10-Day Weather Forecast

Advertisements
Track Severe Weather on mobile